sensor_id;sensor_type;location;lat;lon;timestamp;temperature;humidity
75457;SHT31;64036;48.266;14.192;2023-02-05T00:00:08;-0.62;64.33
75457;SHT31;64036;48.266;14.192;2023-02-05T00:02:43;-0.68;64.72
75457;SHT31;64036;48.266;14.192;2023-02-05T00:05:09;-0.75;65.17
75457;SHT31;64036;48.266;14.192;2023-02-05T00:07:35;-0.80;65.49
75457;SHT31;64036;48.266;14.192;2023-02-05T00:10:11;-0.86;65.67
75457;SHT31;64036;48.266;14.192;2023-02-05T00:12:49;-0.91;65.74
75457;SHT31;64036;48.266;14.192;2023-02-05T00:16:11;-0.95;65.01
75457;SHT31;64036;48.266;14.192;2023-02-05T00:18:53;-0.93;64.66
75457;SHT31;64036;48.266;14.192;2023-02-05T00:21:23;-0.93;64.67
75457;SHT31;64036;48.266;14.192;2023-02-05T00:23:59;-0.96;64.98
75457;SHT31;64036;48.266;14.192;2023-02-05T00:27:00;-0.99;65.29
75457;SHT31;64036;48.266;14.192;2023-02-05T00:29:38;-1.01;65.40
75457;SHT31;64036;48.266;14.192;2023-02-05T00:35:02;-1.03;65.59
75457;SHT31;64036;48.266;14.192;2023-02-05T00:38:26;-1.05;65.76
75457;SHT31;64036;48.266;14.192;2023-02-05T00:41:28;-1.08;65.87
75457;SHT31;64036;48.266;14.192;2023-02-05T00:48:07;-1.16;66.28
75457;SHT31;64036;48.266;14.192;2023-02-05T00:51:05;-1.19;66.50
75457;SHT31;64036;48.266;14.192;2023-02-05T01:03:45;-1.08;66.89
75457;SHT31;64036;48.266;14.192;2023-02-05T01:19:59;-1.04;67.50
75457;SHT31;64036;48.266;14.192;2023-02-05T01:29:36;-1.01;67.81
75457;SHT31;64036;48.266;14.192;2023-02-05T01:32:02;-0.99;67.58
75457;SHT31;64036;48.266;14.192;2023-02-05T01:34:44;-0.99;67.33
75457;SHT31;64036;48.266;14.192;2023-02-05T01:37:19;-0.99;67.26
75457;SHT31;64036;48.266;14.192;2023-02-05T01:39:46;-1.00;67.31
75457;SHT31;64036;48.266;14.192;2023-02-05T01:42:29;-1.03;67.37
75457;SHT31;64036;48.266;14.192;2023-02-05T01:47:59;-1.01;67.17
75457;SHT31;64036;48.266;14.192;2023-02-05T01:50:43;-1.02;67.17
75457;SHT31;64036;48.266;14.192;2023-02-05T01:53:25;-1.01;67.19
75457;SHT31;64036;48.266;14.192;2023-02-05T01:56:04;-1.04;67.23
75457;SHT31;64036;48.266;14.192;2023-02-05T01:59:07;-1.07;67.28
75457;SHT31;64036;48.266;14.192;2023-02-05T02:01:42;-1.11;67.35
75457;SHT31;64036;48.266;14.192;2023-02-05T02:04:58;-1.16;67.66
75457;SHT31;64036;48.266;14.192;2023-02-05T02:07:25;-1.24;68.06
75457;SHT31;64036;48.266;14.192;2023-02-05T02:09:56;-1.25;68.28
75457;SHT31;64036;48.266;14.192;2023-02-05T02:12:53;-1.27;68.42
75457;SHT31;64036;48.266;14.192;2023-02-05T02:15:26;-1.28;68.56
75457;SHT31;64036;48.266;14.192;2023-02-05T02:25:20;-1.29;68.35
75457;SHT31;64036;48.266;14.192;2023-02-05T02:34:44;-1.31;67.75
75457;SHT31;64036;48.266;14.192;2023-02-05T02:37:26;-1.36;68.14
75457;SHT31;64036;48.266;14.192;2023-02-05T02:40:14;-1.39;68.33
75457;SHT31;64036;48.266;14.192;2023-02-05T02:43:23;-1.43;68.48
75457;SHT31;64036;48.266;14.192;2023-02-05T02:46:17;-1.43;68.40
75457;SHT31;64036;48.266;14.192;2023-02-05T02:49:19;-1.45;68.20
75457;SHT31;64036;48.266;14.192;2023-02-05T02:52:03;-1.49;68.31
75457;SHT31;64036;48.266;14.192;2023-02-05T02:54:59;-1.56;68.51
75457;SHT31;64036;48.266;14.192;2023-02-05T02:58:18;-1.58;68.44
75457;SHT31;64036;48.266;14.192;2023-02-05T03:04:28;-1.57;68.70
75457;SHT31;64036;48.266;14.192;2023-02-05T03:14:37;-1.61;68.73
75457;SHT31;64036;48.266;14.192;2023-02-05T03:17:19;-1.59;68.80
75457;SHT31;64036;48.266;14.192;2023-02-05T03:19:58;-1.57;68.72
75457;SHT31;64036;48.266;14.192;2023-02-05T03:22:49;-1.56;68.64
75457;SHT31;64036;48.266;14.192;2023-02-05T03:25:26;-1.55;68.60
75457;SHT31;64036;48.266;14.192;2023-02-05T03:28:09;-1.54;68.45
75457;SHT31;64036;48.266;14.192;2023-02-05T03:30:42;-1.49;68.16
75457;SHT31;64036;48.266;14.192;2023-02-05T03:33:19;-1.46;67.84
75457;SHT31;64036;48.266;14.192;2023-02-05T03:45:55;-1.50;68.63
75457;SHT31;64036;48.266;14.192;2023-02-05T03:49:59;-1.58;69.18
75457;SHT31;64036;48.266;14.192;2023-02-05T03:52:49;-1.61;69.27
75457;SHT31;64036;48.266;14.192;2023-02-05T03:55:28;-1.63;69.30
75457;SHT31;64036;48.266;14.192;2023-02-05T03:58:16;-1.65;69.37
75457;SHT31;64036;48.266;14.192;2023-02-05T04:01:05;-1.66;69.54
75457;SHT31;64036;48.266;14.192;2023-02-05T04:03:38;-1.67;69.62
75457;SHT31;64036;48.266;14.192;2023-02-05T04:06:17;-1.71;69.70
75457;SHT31;64036;48.266;14.192;2023-02-05T04:08:48;-1.74;69.77
75457;SHT31;64036;48.266;14.192;2023-02-05T04:11:29;-1.74;69.83
75457;SHT31;64036;48.266;14.192;2023-02-05T04:14:50;-1.75;70.00
75457;SHT31;64036;48.266;14.192;2023-02-05T04:17:47;-1.74;70.16
75457;SHT31;64036;48.266;14.192;2023-02-05T04:20:35;-1.72;70.11
75457;SHT31;64036;48.266;14.192;2023-02-05T04:23:34;-1.72;70.33
75457;SHT31;64036;48.266;14.192;2023-02-05T04:26:27;-1.73;70.41
75457;SHT31;64036;48.266;14.192;2023-02-05T04:29:06;-1.75;70.57
75457;SHT31;64036;48.266;14.192;2023-02-05T04:31:46;-1.80;70.85
75457;SHT31;64036;48.266;14.192;2023-02-05T04:34:49;-1.82;71.02
75457;SHT31;64036;48.266;14.192;2023-02-05T04:37:20;-1.86;71.10
75457;SHT31;64036;48.266;14.192;2023-02-05T04:40:01;-1.88;71.20
75457;SHT31;64036;48.266;14.192;2023-02-05T04:42:50;-1.90;71.28
75457;SHT31;64036;48.266;14.192;2023-02-05T04:45:28;-1.91;71.30
75457;SHT31;64036;48.266;14.192;2023-02-05T04:47:58;-1.92;71.33
75457;SHT31;64036;48.266;14.192;2023-02-05T04:50:51;-1.93;71.31
75457;SHT31;64036;48.266;14.192;2023-02-05T04:53:26;-1.88;71.30
75457;SHT31;64036;48.266;14.192;2023-02-05T04:56:42;-1.92;71.28
75457;SHT31;64036;48.266;14.192;2023-02-05T04:59:14;-2.01;71.44
75457;SHT31;64036;48.266;14.192;2023-02-05T05:01:54;-2.08;71.75
75457;SHT31;64036;48.266;14.192;2023-02-05T05:04:35;-2.15;71.87
75457;SHT31;64036;48.266;14.192;2023-02-05T05:13:58;-2.25;72.01
75457;SHT31;64036;48.266;14.192;2023-02-05T05:16:50;-2.22;71.96
75457;SHT31;64036;48.266;14.192;2023-02-05T05:22:29;-2.24;71.79
75457;SHT31;64036;48.266;14.192;2023-02-05T05:24:59;-2.28;71.88
75457;SHT31;64036;48.266;14.192;2023-02-05T05:27:39;-2.33;72.01
75457;SHT31;64036;48.266;14.192;2023-02-05T05:30:33;-2.40;72.34
75457;SHT31;64036;48.266;14.192;2023-02-05T05:33:13;-2.43;72.54
75457;SHT31;64036;48.266;14.192;2023-02-05T05:35:50;-2.44;72.81
75457;SHT31;64036;48.266;14.192;2023-02-05T05:38:16;-2.49;73.04
75457;SHT31;64036;48.266;14.192;2023-02-05T05:44:26;-2.50;73.31
75457;SHT31;64036;48.266;14.192;2023-02-05T05:47:56;-2.49;73.34
75457;SHT31;64036;48.266;14.192;2023-02-05T05:51:04;-2.44;73.41
75457;SHT31;64036;48.266;14.192;2023-02-05T05:54:29;-2.40;73.36
75457;SHT31;64036;48.266;14.192;2023-02-05T05:57:09;-2.43;73.45
75457;SHT31;64036;48.266;14.192;2023-02-05T05:59:46;-2.45;73.65
75457;SHT31;64036;48.266;14.192;2023-02-05T06:02:26;-2.45;73.87
75457;SHT31;64036;48.266;14.192;2023-02-05T06:04:57;-2.45;73.92
75457;SHT31;64036;48.266;14.192;2023-02-05T06:07:35;-2.45;73.88
75457;SHT31;64036;48.266;14.192;2023-02-05T06:10:23;-2.44;73.77
75457;SHT31;64036;48.266;14.192;2023-02-05T06:12:58;-2.42;73.78
75457;SHT31;64036;48.266;14.192;2023-02-05T06:15:32;-2.40;73.71
75457;SHT31;64036;48.266;14.192;2023-02-05T06:18:00;-2.40;73.81
75457;SHT31;64036;48.266;14.192;2023-02-05T06:20:44;-2.36;73.63
75457;SHT31;64036;48.266;14.192;2023-02-05T06:23:13;-2.33;73.48
75457;SHT31;64036;48.266;14.192;2023-02-05T06:26:14;-2.31;73.41
75457;SHT31;64036;48.266;14.192;2023-02-05T06:28:58;-2.32;73.45
75457;SHT31;64036;48.266;14.192;2023-02-05T06:31:28;-2.29;73.46
75457;SHT31;64036;48.266;14.192;2023-02-05T06:34:04;-2.29;73.50
75457;SHT31;64036;48.266;14.192;2023-02-05T06:43:01;-1.91;73.26
75457;SHT31;64036;48.266;14.192;2023-02-05T06:45:37;-1.32;72.78
75457;SHT31;64036;48.266;14.192;2023-02-05T06:48:03;-0.68;72.12
75457;SHT31;64036;48.266;14.192;2023-02-05T06:50:34;0.00;71.50
75457;SHT31;64036;48.266;14.192;2023-02-05T06:53:00;0.64;70.47
75457;SHT31;64036;48.266;14.192;2023-02-05T06:55:26;1.22;69.61
75457;SHT31;64036;48.266;14.192;2023-02-05T06:57:52;1.89;69.04
75457;SHT31;64036;48.266;14.192;2023-02-05T07:00:18;2.58;67.82
75457;SHT31;64036;48.266;14.192;2023-02-05T07:02:43;3.31;66.45
75457;SHT31;64036;48.266;14.192;2023-02-05T07:05:09;4.00;65.57
75457;SHT31;64036;48.266;14.192;2023-02-05T07:07:35;4.72;64.66
75457;SHT31;64036;48.266;14.192;2023-02-05T07:10:01;5.42;63.34
75457;SHT31;64036;48.266;14.192;2023-02-05T07:12:26;6.03;62.07
75457;SHT31;64036;48.266;14.192;2023-02-05T07:14:52;6.72;60.19
75457;SHT31;64036;48.266;14.192;2023-02-05T07:17:18;7.41;58.28
75457;SHT31;64036;48.266;14.192;2023-02-05T07:19:44;8.04;56.33
75457;SHT31;64036;48.266;14.192;2023-02-05T07:22:14;8.62;54.74
75457;SHT31;64036;48.266;14.192;2023-02-05T07:24:40;8.97;52.16
75457;SHT31;64036;48.266;14.192;2023-02-05T07:27:06;9.24;50.56
75457;SHT31;64036;48.266;14.192;2023-02-05T07:29:31;9.56;50.26
75457;SHT31;64036;48.266;14.192;2023-02-05T07:31:57;9.91;48.33
75457;SHT31;64036;48.266;14.192;2023-02-05T07:34:22;10.02;47.40
75457;SHT31;64036;48.266;14.192;2023-02-05T07:36:51;10.23;46.81
75457;SHT31;64036;48.266;14.192;2023-02-05T07:39:17;10.37;45.69
75457;SHT31;64036;48.266;14.192;2023-02-05T07:41:43;10.59;45.46
75457;SHT31;64036;48.266;14.192;2023-02-05T07:44:09;10.99;44.83
75457;SHT31;64036;48.266;14.192;2023-02-05T07:46:35;11.32;43.82
75457;SHT31;64036;48.266;14.192;2023-02-05T07:49:01;11.72;43.93
75457;SHT31;64036;48.266;14.192;2023-02-05T07:51:26;12.14;42.41
75457;SHT31;64036;48.266;14.192;2023-02-05T07:53:52;12.41;41.61
75457;SHT31;64036;48.266;14.192;2023-02-05T07:56:18;12.56;40.87
75457;SHT31;64036;48.266;14.192;2023-02-05T07:58:47;12.88;40.59
75457;SHT31;64036;48.266;14.192;2023-02-05T08:01:13;13.15;39.63
75457;SHT31;64036;48.266;14.192;2023-02-05T08:03:39;13.36;39.11
75457;SHT31;64036;48.266;14.192;2023-02-05T08:06:05;13.47;38.29
75457;SHT31;64036;48.266;14.192;2023-02-05T08:08:32;13.55;37.73
75457;SHT31;64036;48.266;14.192;2023-02-05T08:10:59;13.80;37.71
75457;SHT31;64036;48.266;14.192;2023-02-05T08:13:30;14.05;36.66
75457;SHT31;64036;48.266;14.192;2023-02-05T08:15:57;14.24;36.89
75457;SHT31;64036;48.266;14.192;2023-02-05T08:18:23;14.50;36.40
75457;SHT31;64036;48.266;14.192;2023-02-05T08:20:52;14.76;36.04
75457;SHT31;64036;48.266;14.192;2023-02-05T08:23:19;14.96;35.52
75457;SHT31;64036;48.266;14.192;2023-02-05T08:25:45;15.09;35.25
75457;SHT31;64036;48.266;14.192;2023-02-05T08:28:11;15.23;34.96
75457;SHT31;64036;48.266;14.192;2023-02-05T08:30:38;15.29;34.70
75457;SHT31;64036;48.266;14.192;2023-02-05T08:33:04;15.30;34.25
75457;SHT31;64036;48.266;14.192;2023-02-05T08:35:29;15.37;34.38
75457;SHT31;64036;48.266;14.192;2023-02-05T08:37:55;15.61;33.83
75457;SHT31;64036;48.266;14.192;2023-02-05T08:40:21;15.72;33.38
75457;SHT31;64036;48.266;14.192;2023-02-05T08:42:47;15.71;33.04
75457;SHT31;64036;48.266;14.192;2023-02-05T08:45:17;15.78;32.86
75457;SHT31;64036;48.266;14.192;2023-02-05T08:47:43;15.86;32.50
75457;SHT31;64036;48.266;14.192;2023-02-05T08:50:09;15.92;32.10
75457;SHT31;64036;48.266;14.192;2023-02-05T08:52:35;15.97;31.76
75457;SHT31;64036;48.266;14.192;2023-02-05T08:55:01;16.04;31.35
75457;SHT31;64036;48.266;14.192;2023-02-05T08:57:27;16.09;31.15
75457;SHT31;64036;48.266;14.192;2023-02-05T08:59:54;16.19;31.18
75457;SHT31;64036;48.266;14.192;2023-02-05T09:02:20;16.39;30.87
75457;SHT31;64036;48.266;14.192;2023-02-05T09:04:46;16.51;30.86
75457;SHT31;64036;48.266;14.192;2023-02-05T09:07:12;16.61;30.99
75457;SHT31;64036;48.266;14.192;2023-02-05T09:09:39;16.82;30.06
75457;SHT31;64036;48.266;14.192;2023-02-05T09:12:05;16.72;29.67
75457;SHT31;64036;48.266;14.192;2023-02-05T09:14:31;16.65;29.98
75457;SHT31;64036;48.266;14.192;2023-02-05T09:17:04;16.70;30.13
75457;SHT31;64036;48.266;14.192;2023-02-05T09:19:37;16.72;29.94
75457;SHT31;64036;48.266;14.192;2023-02-05T09:22:05;16.73;30.11
75457;SHT31;64036;48.266;14.192;2023-02-05T09:24:31;16.84;30.21
75457;SHT31;64036;48.266;14.192;2023-02-05T09:26:57;16.93;30.26
75457;SHT31;64036;48.266;14.192;2023-02-05T09:29:23;16.92;29.86
75457;SHT31;64036;48.266;14.192;2023-02-05T09:31:49;16.86;29.42
75457;SHT31;64036;48.266;14.192;2023-02-05T09:34:15;16.74;29.30
75457;SHT31;64036;48.266;14.192;2023-02-05T09:36:41;16.61;29.80
75457;SHT31;64036;48.266;14.192;2023-02-05T09:39:07;16.62;29.60
75457;SHT31;64036;48.266;14.192;2023-02-05T09:44:15;16.25;28.93
75457;SHT31;64036;48.266;14.192;2023-02-05T09:49:42;15.95;29.59
75457;SHT31;64036;48.266;14.192;2023-02-05T09:52:37;15.70;29.30
75457;SHT31;64036;48.266;14.192;2023-02-05T09:55:31;15.52;29.30
75457;SHT31;64036;48.266;14.192;2023-02-05T09:57:58;14.87;31.44
75457;SHT31;64036;48.266;14.192;2023-02-05T10:00:44;14.13;32.78
75457;SHT31;64036;48.266;14.192;2023-02-05T10:03:40;13.63;32.99
75457;SHT31;64036;48.266;14.192;2023-02-05T10:06:15;13.04;33.70
75457;SHT31;64036;48.266;14.192;2023-02-05T10:09:00;12.53;33.80
75457;SHT31;64036;48.266;14.192;2023-02-05T10:14:49;11.71;35.27
75457;SHT31;64036;48.266;14.192;2023-02-05T10:20:40;11.56;37.37
75457;SHT31;64036;48.266;14.192;2023-02-05T10:26:40;11.53;36.81
75457;SHT31;64036;48.266;14.192;2023-02-05T10:31:49;11.32;37.07
75457;SHT31;64036;48.266;14.192;2023-02-05T10:36:54;11.07;37.41
75457;SHT31;64036;48.266;14.192;2023-02-05T10:39:21;10.77;37.24
75457;SHT31;64036;48.266;14.192;2023-02-05T10:51:00;9.72;39.10
75457;SHT31;64036;48.266;14.192;2023-02-05T10:53:31;9.63;38.86
75457;SHT31;64036;48.266;14.192;2023-02-05T10:55:58;9.59;39.34
75457;SHT31;64036;48.266;14.192;2023-02-05T11:00:54;9.33;39.98
75457;SHT31;64036;48.266;14.192;2023-02-05T11:03:20;9.28;39.49
75457;SHT31;64036;48.266;14.192;2023-02-05T11:05:47;9.32;38.64
75457;SHT31;64036;48.266;14.192;2023-02-05T11:08:34;9.36;40.10
75457;SHT31;64036;48.266;14.192;2023-02-05T11:11:04;9.75;39.90
75457;SHT31;64036;48.266;14.192;2023-02-05T11:13:32;9.79;39.49
75457;SHT31;64036;48.266;14.192;2023-02-05T11:16:04;9.72;40.07
75457;SHT31;64036;48.266;14.192;2023-02-05T11:18:37;9.86;40.89
75457;SHT31;64036;48.266;14.192;2023-02-05T11:21:07;9.83;39.96
75457;SHT31;64036;48.266;14.192;2023-02-05T11:23:34;9.60;39.29
75457;SHT31;64036;48.266;14.192;2023-02-05T11:28:35;9.12;39.95
75457;SHT31;64036;48.266;14.192;2023-02-05T11:36:31;9.14;42.31
75457;SHT31;64036;48.266;14.192;2023-02-05T11:38:57;9.26;41.48
75457;SHT31;64036;48.266;14.192;2023-02-05T11:44:26;9.32;40.69
75457;SHT31;64036;48.266;14.192;2023-02-05T11:46:56;9.42;41.55
75457;SHT31;64036;48.266;14.192;2023-02-05T11:49:31;9.46;40.20
75457;SHT31;64036;48.266;14.192;2023-02-05T11:51:59;9.50;40.65
75457;SHT31;64036;48.266;14.192;2023-02-05T11:54:37;9.44;40.15
75457;SHT31;64036;48.266;14.192;2023-02-05T11:59:53;9.44;41.07
75457;SHT31;64036;48.266;14.192;2023-02-05T12:22:19;9.53;38.69
75457;SHT31;64036;48.266;14.192;2023-02-05T12:25:14;9.38;38.87
75457;SHT31;64036;48.266;14.192;2023-02-05T12:35:54;8.94;39.93
75457;SHT31;64036;48.266;14.192;2023-02-05T12:41:37;8.84;39.80
75457;SHT31;64036;48.266;14.192;2023-02-05T12:48:03;9.18;40.57
75457;SHT31;64036;48.266;14.192;2023-02-05T12:51:02;9.16;39.41
75457;SHT31;64036;48.266;14.192;2023-02-05T12:56:49;8.79;39.71
75457;SHT31;64036;48.266;14.192;2023-02-05T12:59:43;8.76;40.25
75457;SHT31;64036;48.266;14.192;2023-02-05T13:04:51;8.65;38.98
75457;SHT31;64036;48.266;14.192;2023-02-05T13:07:44;8.48;39.44
75457;SHT31;64036;48.266;14.192;2023-02-05T13:10:21;8.43;40.23
75457;SHT31;64036;48.266;14.192;2023-02-05T13:12:59;8.36;40.01
75457;SHT31;64036;48.266;14.192;2023-02-05T13:15:33;8.30;39.70
75457;SHT31;64036;48.266;14.192;2023-02-05T13:18:09;8.30;39.52
75457;SHT31;64036;48.266;14.192;2023-02-05T13:20:52;8.26;39.54
75457;SHT31;64036;48.266;14.192;2023-02-05T13:23:42;8.07;39.20
75457;SHT31;64036;48.266;14.192;2023-02-05T13:26:31;7.91;39.42
75457;SHT31;64036;48.266;14.192;2023-02-05T13:29:27;7.89;40.87
75457;SHT31;64036;48.266;14.192;2023-02-05T13:32:15;7.88;40.36
75457;SHT31;64036;48.266;14.192;2023-02-05T13:34:46;7.86;41.15
75457;SHT31;64036;48.266;14.192;2023-02-05T13:37:15;7.98;41.91
75457;SHT31;64036;48.266;14.192;2023-02-05T13:54:34;7.38;41.74
75457;SHT31;64036;48.266;14.192;2023-02-05T13:58:20;7.03;41.95
75457;SHT31;64036;48.266;14.192;2023-02-05T14:03:44;6.58;42.88
75457;SHT31;64036;48.266;14.192;2023-02-05T14:06:21;6.31;42.56
75457;SHT31;64036;48.266;14.192;2023-02-05T14:08:59;6.16;42.80
75457;SHT31;64036;48.266;14.192;2023-02-05T14:11:54;6.11;44.08
75457;SHT31;64036;48.266;14.192;2023-02-05T14:14:36;6.08;44.44
75457;SHT31;64036;48.266;14.192;2023-02-05T14:19:57;6.00;45.38
75457;SHT31;64036;48.266;14.192;2023-02-05T14:28:33;6.16;45.19
75457;SHT31;64036;48.266;14.192;2023-02-05T14:31:08;6.20;44.00
75457;SHT31;64036;48.266;14.192;2023-02-05T14:34:56;5.93;43.11
75457;SHT31;64036;48.266;14.192;2023-02-05T14:37:00;5.71;43.70
75457;SHT31;64036;48.266;14.192;2023-02-05T14:39:27;5.63;44.22
75457;SHT31;64036;48.266;14.192;2023-02-05T14:42:00;5.59;44.53
75457;SHT31;64036;48.266;14.192;2023-02-05T14:44:37;5.58;44.79
75457;SHT31;64036;48.266;14.192;2023-02-05T14:47:17;5.51;45.04
75457;SHT31;64036;48.266;14.192;2023-02-05T14:49:47;5.38;44.95
75457;SHT31;64036;48.266;14.192;2023-02-05T14:52:20;5.26;45.52
75457;SHT31;64036;48.266;14.192;2023-02-05T15:00:28;4.62;46.54
75457;SHT31;64036;48.266;14.192;2023-02-05T15:11:29;3.92;48.88
75457;SHT31;64036;48.266;14.192;2023-02-05T15:25:00;3.56;51.54
75457;SHT31;64036;48.266;14.192;2023-02-05T15:27:42;3.56;52.05
75457;SHT31;64036;48.266;14.192;2023-02-05T15:30:16;3.53;52.63
75457;SHT31;64036;48.266;14.192;2023-02-05T15:33:21;3.49;53.32
75457;SHT31;64036;48.266;14.192;2023-02-05T15:35:50;3.43;53.52
75457;SHT31;64036;48.266;14.192;2023-02-05T15:38:40;3.34;53.78
75457;SHT31;64036;48.266;14.192;2023-02-05T15:41:40;3.25;54.31
75457;SHT31;64036;48.266;14.192;2023-02-05T15:44:21;3.20;54.68
75457;SHT31;64036;48.266;14.192;2023-02-05T15:47:09;3.13;54.86
75457;SHT31;64036;48.266;14.192;2023-02-05T15:49:43;3.03;54.33
75457;SHT31;64036;48.266;14.192;2023-02-05T15:52:18;2.91;54.22
75457;SHT31;64036;48.266;14.192;2023-02-05T15:55:09;2.83;54.34
75457;SHT31;64036;48.266;14.192;2023-02-05T15:57:40;2.78;54.33
75457;SHT31;64036;48.266;14.192;2023-02-05T16:00:09;2.73;54.19
75457;SHT31;64036;48.266;14.192;2023-02-05T16:02:56;2.66;53.97
75457;SHT31;64036;48.266;14.192;2023-02-05T16:05:49;2.58;53.92
75457;SHT31;64036;48.266;14.192;2023-02-05T16:08:26;2.49;53.87
75457;SHT31;64036;48.266;14.192;2023-02-05T16:10:56;2.44;53.96
75457;SHT31;64036;48.266;14.192;2023-02-05T16:13:31;2.38;54.10
75457;SHT31;64036;48.266;14.192;2023-02-05T16:16:26;2.32;53.89
75457;SHT31;64036;48.266;14.192;2023-02-05T16:18:53;2.25;53.94
75457;SHT31;64036;48.266;14.192;2023-02-05T16:21:50;2.21;54.11
75457;SHT31;64036;48.266;14.192;2023-02-05T16:27:11;1.99;54.43
75457;SHT31;64036;48.266;14.192;2023-02-05T16:30:27;1.83;55.11
75457;SHT31;64036;48.266;14.192;2023-02-05T16:36:36;1.50;57.18
75457;SHT31;64036;48.266;14.192;2023-02-05T16:42:58;1.29;58.48
75457;SHT31;64036;48.266;14.192;2023-02-05T16:46:21;1.26;58.83
75457;SHT31;64036;48.266;14.192;2023-02-05T16:52:16;1.22;58.98
75457;SHT31;64036;48.266;14.192;2023-02-05T16:58:30;1.12;58.31
75457;SHT31;64036;48.266;14.192;2023-02-05T17:01:17;1.12;58.18
75457;SHT31;64036;48.266;14.192;2023-02-05T17:04:20;1.10;58.20
75457;SHT31;64036;48.266;14.192;2023-02-05T17:11:10;1.05;60.13
75457;SHT31;64036;48.266;14.192;2023-02-05T17:16:24;0.99;61.16
75457;SHT31;64036;48.266;14.192;2023-02-05T17:19:23;0.93;61.43
75457;SHT31;64036;48.266;14.192;2023-02-05T17:24:52;0.87;61.22
75457;SHT31;64036;48.266;14.192;2023-02-05T17:27:49;0.81;62.46
75457;SHT31;64036;48.266;14.192;2023-02-05T17:30:28;0.76;63.82
75457;SHT31;64036;48.266;14.192;2023-02-05T17:32:56;0.73;64.48
75457;SHT31;64036;48.266;14.192;2023-02-05T17:35:22;0.70;64.50
75457;SHT31;64036;48.266;14.192;2023-02-05T17:38:00;0.66;65.19
75457;SHT31;64036;48.266;14.192;2023-02-05T17:40:36;0.62;65.45
75457;SHT31;64036;48.266;14.192;2023-02-05T17:43:05;0.58;65.59
75457;SHT31;64036;48.266;14.192;2023-02-05T17:45:35;0.55;65.58
75457;SHT31;64036;48.266;14.192;2023-02-05T17:48:10;0.53;65.28
75457;SHT31;64036;48.266;14.192;2023-02-05T17:51:05;0.45;64.99
75457;SHT31;64036;48.266;14.192;2023-02-05T17:53:53;0.38;64.50
75457;SHT31;64036;48.266;14.192;2023-02-05T17:56:22;0.37;63.99
75457;SHT31;64036;48.266;14.192;2023-02-05T17:59:29;0.39;63.14
75457;SHT31;64036;48.266;14.192;2023-02-05T18:02:19;0.40;62.21
75457;SHT31;64036;48.266;14.192;2023-02-05T18:05:44;0.40;61.44
75457;SHT31;64036;48.266;14.192;2023-02-05T18:08:10;0.39;60.90
75457;SHT31;64036;48.266;14.192;2023-02-05T18:14:15;0.39;60.52
75457;SHT31;64036;48.266;14.192;2023-02-05T18:17:24;0.42;60.75
75457;SHT31;64036;48.266;14.192;2023-02-05T18:20:52;0.46;60.43
75457;SHT31;64036;48.266;14.192;2023-02-05T18:27:27;0.45;60.65
75457;SHT31;64036;48.266;14.192;2023-02-05T18:30:38;0.44;60.91
75457;SHT31;64036;48.266;14.192;2023-02-05T18:33:36;0.44;60.43
75457;SHT31;64036;48.266;14.192;2023-02-05T18:39:53;0.41;60.39
75457;SHT31;64036;48.266;14.192;2023-02-05T18:42:42;0.35;60.91
75457;SHT31;64036;48.266;14.192;2023-02-05T18:49:07;0.23;61.44
75457;SHT31;64036;48.266;14.192;2023-02-05T18:51:53;0.19;61.37
75457;SHT31;64036;48.266;14.192;2023-02-05T18:58:09;0.14;61.05
75457;SHT31;64036;48.266;14.192;2023-02-05T19:01:30;0.11;61.33
75457;SHT31;64036;48.266;14.192;2023-02-05T19:18:17;-0.16;62.33
75457;SHT31;64036;48.266;14.192;2023-02-05T19:21:51;-0.21;62.42
75457;SHT31;64036;48.266;14.192;2023-02-05T19:25:18;-0.25;62.15
75457;SHT31;64036;48.266;14.192;2023-02-05T19:28:35;-0.31;62.11
75457;SHT31;64036;48.266;14.192;2023-02-05T19:34:43;-0.44;62.17
75457;SHT31;64036;48.266;14.192;2023-02-05T19:37:37;-0.44;62.15
75457;SHT31;64036;48.266;14.192;2023-02-05T19:40:13;-0.44;62.20
75457;SHT31;64036;48.266;14.192;2023-02-05T19:46:37;-0.46;63.60
75457;SHT31;64036;48.266;14.192;2023-02-05T19:53:32;-0.52;63.89
75457;SHT31;64036;48.266;14.192;2023-02-05T19:56:38;-0.52;64.69
75457;SHT31;64036;48.266;14.192;2023-02-05T20:17:03;-0.56;64.37
75457;SHT31;64036;48.266;14.192;2023-02-05T21:00:41;-0.94;64.71
75457;SHT31;64036;48.266;14.192;2023-02-05T21:14:55;-1.06;64.94
75457;SHT31;64036;48.266;14.192;2023-02-05T21:18:10;-1.13;65.31
75457;SHT31;64036;48.266;14.192;2023-02-05T21:24:20;-1.26;66.05
75457;SHT31;64036;48.266;14.192;2023-02-05T21:31:07;-1.26;65.79
75457;SHT31;64036;48.266;14.192;2023-02-05T21:41:46;-1.30;65.03
75457;SHT31;64036;48.266;14.192;2023-02-05T21:48:25;-1.36;65.11
75457;SHT31;64036;48.266;14.192;2023-02-05T21:50:51;-1.35;64.78
75457;SHT31;64036;48.266;14.192;2023-02-05T21:54:12;-1.35;64.48
75457;SHT31;64036;48.266;14.192;2023-02-05T21:57:24;-1.34;64.14
75457;SHT31;64036;48.266;14.192;2023-02-05T22:00:47;-1.35;64.17
75457;SHT31;64036;48.266;14.192;2023-02-05T22:07:24;-1.37;64.44
75457;SHT31;64036;48.266;14.192;2023-02-05T22:31:33;-1.51;63.78
75457;SHT31;64036;48.266;14.192;2023-02-05T22:34:24;-1.49;63.79
75457;SHT31;64036;48.266;14.192;2023-02-05T22:40:51;-1.51;63.99
75457;SHT31;64036;48.266;14.192;2023-02-05T22:59:14;-1.64;63.90
75457;SHT31;64036;48.266;14.192;2023-02-05T23:06:37;-1.68;63.83
75457;SHT31;64036;48.266;14.192;2023-02-05T23:13:34;-1.69;64.12
75457;SHT31;64036;48.266;14.192;2023-02-05T23:20:56;-1.83;65.58
75457;SHT31;64036;48.266;14.192;2023-02-05T23:46:04;-2.10;65.47
